createdAt,value
2022-09-12T00:01:16.408Z,1.31
2022-09-12T00:03:43.640Z,1.36
2022-09-12T00:06:22.351Z,1.66
2022-09-12T00:08:50.502Z,1.36
2022-09-12T00:11:18.683Z,1.56
2022-09-12T00:13:46.360Z,1.31
2022-09-12T00:16:19.151Z,1.38
2022-09-12T00:18:47.256Z,1.50
2022-09-12T00:21:17.926Z,1.60
2022-09-12T00:23:46.038Z,1.37
2022-09-12T00:26:13.737Z,1.26
2022-09-12T00:28:42.120Z,1.20
2022-09-12T00:31:12.092Z,1.35
2022-09-12T00:33:39.622Z,1.38
2022-09-12T00:36:09.082Z,1.29
2022-09-12T00:38:37.821Z,1.43
2022-09-12T00:41:05.100Z,1.30
2022-09-12T00:43:39.017Z,1.25
2022-09-12T00:46:17.835Z,1.51
2022-09-12T00:48:52.312Z,1.26
2022-09-12T00:51:20.661Z,1.09
2022-09-12T00:53:53.831Z,1.15
2022-09-12T00:56:24.210Z,1.25
2022-09-12T00:58:58.191Z,1.29
2022-09-12T01:01:29.218Z,1.37
2022-09-12T01:03:59.391Z,1.19
2022-09-12T01:06:30.431Z,1.27
2022-09-12T01:09:00.731Z,1.34
2022-09-12T01:11:29.111Z,1.22
2022-09-12T01:13:56.670Z,1.01
2022-09-12T01:16:23.874Z,0.88
2022-09-12T01:19:05.671Z,0.80
2022-09-12T01:21:47.490Z,1.01
2022-09-12T01:24:42.691Z,1.04
2022-09-12T01:27:33.973Z,1.15
2022-09-12T01:30:33.290Z,1.02
2022-09-12T01:33:37.412Z,1.11
2022-09-12T01:36:29.692Z,1.11
2022-09-12T01:39:02.313Z,1.23
2022-09-12T01:41:42.211Z,1.09
2022-09-12T01:44:20.551Z,1.22
2022-09-12T01:46:55.112Z,1.16
2022-09-12T01:49:32.232Z,1.17
2022-09-12T01:52:09.651Z,1.13
2022-09-12T01:54:43.983Z,1.11
2022-09-12T01:57:18.710Z,1.25
2022-09-12T01:59:51.270Z,1.14
2022-09-12T02:02:26.416Z,1.20
2022-09-12T02:05:03.091Z,1.10
2022-09-12T02:07:37.313Z,1.30
2022-09-12T02:10:12.555Z,1.13
2022-09-12T02:12:48.992Z,1.16
2022-09-12T02:15:24.151Z,1.05
2022-09-12T02:17:57.672Z,1.07
2022-09-12T02:20:47.500Z,1.14
2022-09-12T02:23:20.870Z,1.19
2022-09-12T02:25:52.552Z,1.18
2022-09-12T02:28:25.251Z,1.16
2022-09-12T02:31:01.668Z,1.11
2022-09-12T02:33:39.149Z,1.05
2022-09-12T02:36:17.590Z,1.09
2022-09-12T02:38:48.151Z,1.15
2022-09-12T02:41:19.673Z,1.17
2022-09-12T02:43:48.871Z,1.01
2022-09-12T02:46:22.630Z,1.05
2022-09-12T02:48:49.733Z,1.15
2022-09-12T02:51:23.382Z,1.17
2022-09-12T02:53:52.310Z,1.27
2022-09-12T02:56:26.210Z,1.05
2022-09-12T02:58:54.249Z,1.16
2022-09-12T03:01:41.150Z,1.18
2022-09-12T03:04:28.789Z,1.04
2022-09-12T03:07:13.118Z,1.04
2022-09-12T03:09:49.970Z,1.04
2022-09-12T03:12:36.693Z,0.98
2022-09-12T03:15:20.851Z,1.06
2022-09-12T03:18:05.090Z,1.12
2022-09-12T03:20:48.329Z,1.06
2022-09-12T03:23:30.869Z,1.11
2022-09-12T03:26:06.150Z,1.04
2022-09-12T03:28:37.532Z,1.01
2022-09-12T03:31:13.813Z,1.18
2022-09-12T03:33:40.894Z,0.99
2022-09-12T03:36:16.411Z,1.09
2022-09-12T03:38:46.083Z,1.12
2022-09-12T03:41:13.271Z,1.15
2022-09-12T03:43:40.693Z,1.12
2022-09-12T03:46:08.111Z,1.07
2022-09-12T03:48:35.318Z,1.20
2022-09-12T03:51:03.591Z,0.96
2022-09-12T03:53:31.533Z,1.13
2022-09-12T03:56:00.691Z,1.67
2022-09-12T03:58:31.913Z,1.71
2022-09-12T04:00:59.050Z,1.59
2022-09-12T04:03:26.212Z,1.41
2022-09-12T04:05:53.272Z,1.39
2022-09-12T04:08:20.371Z,1.39
2022-09-12T04:10:47.432Z,1.42
2022-09-12T04:13:16.011Z,1.34
2022-09-12T04:15:43.251Z,1.29
2022-09-12T04:18:10.311Z,1.39
2022-09-12T04:20:37.370Z,1.17
2022-09-12T04:23:04.393Z,1.31
2022-09-12T04:25:31.530Z,1.22
2022-09-12T04:27:58.751Z,1.20
2022-09-12T04:30:27.314Z,1.26
2022-09-12T04:32:54.472Z,1.31
2022-09-12T04:35:21.511Z,1.46
2022-09-12T04:37:48.612Z,1.54
2022-09-12T04:40:15.791Z,1.22
2022-09-12T04:42:42.893Z,1.42
2022-09-12T04:45:11.050Z,1.58
2022-09-12T04:47:40.492Z,1.34
2022-09-12T04:50:08.892Z,1.34
2022-09-12T04:52:35.972Z,1.36
2022-09-12T04:55:03.070Z,1.30
2022-09-12T04:57:30.173Z,1.52
2022-09-12T04:59:57.792Z,1.70
2022-09-12T05:02:24.977Z,1.80
2022-09-12T05:04:53.571Z,1.81
2022-09-12T05:07:20.672Z,1.56
2022-09-12T05:09:47.811Z,1.73
2022-09-12T05:12:14.890Z,1.90
2022-09-12T05:14:41.983Z,1.58
2022-09-12T05:17:09.152Z,1.41
2022-09-12T05:19:36.212Z,1.40
2022-09-12T05:22:04.930Z,1.42
2022-09-12T05:24:32.150Z,1.31
2022-09-12T05:26:59.250Z,1.22
2022-09-12T05:29:26.350Z,1.29
2022-09-12T05:31:53.471Z,1.24
2022-09-12T05:34:21.269Z,1.16
2022-09-12T05:36:49.012Z,1.28
2022-09-12T05:39:17.713Z,1.09
2022-09-12T05:41:44.731Z,1.35
2022-09-12T05:44:13.592Z,1.31
2022-09-12T05:46:43.064Z,1.28
2022-09-12T05:49:12.666Z,1.26
2022-09-12T05:51:42.151Z,1.25
2022-09-12T05:54:12.791Z,1.25
2022-09-12T05:56:43.111Z,1.49
2022-09-12T05:59:13.532Z,1.56
2022-09-12T06:01:41.642Z,1.61
2022-09-12T06:04:09.392Z,1.39
2022-09-12T06:06:40.012Z,1.50
2022-09-12T06:09:07.715Z,1.83
2022-09-12T06:11:37.256Z,1.87
2022-09-12T06:14:05.753Z,1.58
2022-09-12T06:16:34.841Z,1.89
2022-09-12T06:19:04.231Z,1.82
2022-09-12T06:21:31.381Z,1.83
2022-09-12T06:23:59.310Z,1.63
2022-09-12T06:26:28.253Z,2.07
2022-09-12T06:28:57.693Z,1.92
2022-09-12T06:31:28.213Z,1.78
2022-09-12T06:33:56.792Z,1.68
2022-09-12T06:36:26.174Z,1.51
2022-09-12T06:38:58.152Z,1.50
2022-09-12T06:41:26.053Z,1.58
2022-09-12T06:43:54.435Z,1.59
2022-09-12T06:46:22.123Z,1.65
2022-09-12T06:48:51.172Z,1.55
2022-09-12T06:51:19.692Z,1.34
2022-09-12T06:53:48.570Z,1.56
2022-09-12T06:56:17.331Z,1.45
2022-09-12T06:58:44.576Z,1.29
2022-09-12T07:01:13.975Z,1.33
2022-09-12T07:03:43.073Z,1.23
2022-09-12T07:06:15.492Z,1.32
2022-09-12T07:08:42.958Z,1.34
2022-09-12T07:11:12.711Z,1.35
2022-09-12T07:13:40.632Z,1.38
2022-09-12T07:16:08.295Z,1.56
2022-09-12T07:18:36.351Z,1.87
2022-09-12T07:21:04.071Z,1.44
2022-09-12T07:23:33.081Z,1.37
2022-09-12T07:26:01.813Z,1.29
2022-09-12T07:28:31.594Z,1.38
2022-09-12T07:31:06.053Z,1.77
2022-09-12T07:33:33.491Z,1.63
2022-09-12T07:36:02.074Z,1.66
2022-09-12T07:38:29.172Z,1.74
2022-09-12T07:40:57.731Z,2.10
2022-09-12T07:43:25.231Z,1.80
2022-09-12T07:45:55.707Z,2.13
2022-09-12T07:48:23.332Z,3.67
2022-09-12T07:50:58.952Z,2.06
2022-09-12T07:53:26.230Z,1.73
2022-09-12T07:55:54.811Z,1.89
2022-09-12T07:58:23.513Z,1.97
2022-09-12T08:00:50.969Z,1.82
2022-09-12T08:03:18.392Z,1.71
2022-09-12T08:05:45.452Z,1.78
2022-09-12T08:08:12.772Z,1.59
2022-09-12T08:10:39.870Z,1.96
2022-09-12T08:13:06.960Z,1.68
2022-09-12T08:15:36.474Z,1.54
2022-09-12T08:18:03.951Z,1.92
2022-09-12T08:20:30.991Z,2.08
2022-09-12T08:22:58.012Z,1.91
2022-09-12T08:25:25.151Z,1.74
2022-09-12T08:27:52.229Z,1.57
2022-09-12T08:30:19.313Z,1.72
2022-09-12T08:32:47.931Z,1.64
2022-09-12T08:35:15.052Z,1.62
2022-09-12T08:37:42.417Z,1.68
2022-09-12T08:40:16.949Z,2.49
2022-09-12T08:42:58.850Z,1.93
2022-09-12T08:45:36.747Z,1.91
2022-09-12T08:48:09.749Z,2.47
2022-09-12T08:50:37.484Z,2.66
2022-09-12T08:53:14.039Z,2.24
2022-09-12T08:55:44.898Z,2.05
2022-09-12T08:58:16.482Z,1.78
2022-09-12T09:00:54.338Z,2.21
2022-09-12T09:03:51.161Z,2.01
2022-09-12T09:06:52.599Z,1.58
2022-09-12T09:09:34.863Z,1.71
2022-09-12T09:12:17.496Z,2.43
2022-09-12T09:15:00.948Z,2.42
2022-09-12T09:17:35.264Z,1.74
2022-09-12T09:20:17.429Z,1.62
2022-09-12T09:22:51.003Z,1.81
2022-09-12T09:25:23.900Z,2.05
2022-09-12T09:27:58.724Z,1.86
2022-09-12T09:30:25.920Z,1.69
2022-09-12T09:32:57.680Z,1.79
2022-09-12T09:35:38.656Z,1.69
2022-09-12T09:38:22.605Z,2.18
2022-09-12T09:41:07.326Z,2.23
2022-09-12T09:43:34.633Z,2.13
2022-09-12T09:46:01.920Z,1.51
2022-09-12T09:48:32.805Z,1.46
2022-09-12T09:51:04.701Z,1.28
2022-09-12T09:53:40.207Z,1.95
2022-09-12T09:56:15.452Z,1.73
2022-09-12T09:58:42.684Z,1.63
2022-09-12T10:01:15.966Z,1.64
2022-09-12T10:03:49.776Z,1.52
2022-09-12T10:06:30.215Z,1.61
2022-09-12T10:09:19.575Z,1.75
2022-09-12T10:11:47.500Z,1.51
2022-09-12T10:14:34.115Z,1.53
2022-09-12T10:17:03.256Z,1.71
2022-09-12T10:19:38.777Z,1.57
2022-09-12T10:22:18.214Z,1.86
2022-09-12T10:24:50.652Z,1.98
2022-09-12T10:27:22.729Z,2.16
2022-09-12T10:29:54.931Z,1.92
2022-09-12T10:32:34.110Z,1.63
2022-09-12T10:35:05.005Z,1.66
2022-09-12T10:37:37.190Z,1.94
2022-09-12T10:40:20.646Z,1.67
2022-09-12T10:42:50.349Z,1.61
2022-09-12T10:45:27.386Z,1.47
2022-09-12T10:47:56.729Z,1.76
2022-09-12T10:50:28.365Z,1.55
2022-09-12T10:53:15.003Z,1.54
2022-09-12T10:56:02.060Z,1.47
2022-09-12T10:59:01.551Z,1.42
2022-09-12T11:01:39.612Z,2.25
2022-09-12T11:04:29.409Z,1.58
2022-09-12T11:07:21.983Z,1.70
2022-09-12T11:10:01.765Z,1.58
2022-09-12T11:12:39.484Z,1.63
2022-09-12T11:15:29.743Z,1.53
2022-09-12T11:18:11.102Z,1.33
2022-09-12T11:20:59.823Z,1.45
2022-09-12T11:23:48.844Z,1.53
2022-09-12T11:26:32.401Z,1.80
2022-09-12T11:29:11.754Z,1.44
2022-09-12T11:32:01.720Z,1.40
2022-09-12T11:34:44.400Z,1.17
2022-09-12T11:37:37.639Z,1.28
2022-09-12T11:40:23.792Z,1.19
2022-09-12T11:42:59.460Z,1.28
2022-09-12T11:45:36.481Z,1.12
2022-09-12T11:48:13.026Z,1.28
2022-09-12T11:50:40.780Z,1.31
2022-09-12T11:53:18.760Z,1.16
2022-09-12T11:55:55.581Z,1.18
2022-09-12T11:58:28.248Z,1.24
2022-09-12T12:01:11.580Z,1.12
2022-09-12T12:03:43.200Z,1.30
2022-09-12T12:06:16.821Z,1.40
2022-09-12T12:08:46.394Z,1.34
2022-09-12T12:11:16.580Z,1.13
2022-09-12T12:13:52.719Z,1.21
2022-09-12T12:16:27.162Z,1.31
2022-09-12T12:18:57.079Z,1.23
2022-09-12T12:21:38.733Z,1.54
2022-09-12T12:24:15.782Z,1.98
2022-09-12T12:26:59.641Z,1.98
2022-09-12T12:29:44.920Z,2.87
2022-09-12T12:32:26.221Z,1.47
2022-09-12T12:35:20.641Z,1.81
2022-09-12T12:37:57.420Z,3.26
2022-09-12T12:40:27.703Z,3.56
2022-09-12T12:42:59.979Z,1.95
2022-09-12T12:46:04.597Z,1.71
2022-09-12T12:49:08.119Z,1.87
2022-09-12T12:52:00.301Z,1.61
2022-09-12T12:54:50.758Z,1.44
2022-09-12T12:57:28.840Z,1.20
2022-09-12T13:00:02.063Z,1.20
2022-09-12T13:02:35.109Z,1.05
2022-09-12T13:05:07.279Z,1.04
2022-09-12T13:07:38.742Z,1.00
2022-09-12T13:10:08.471Z,1.59
2022-09-12T13:12:44.459Z,1.43
2022-09-12T13:15:46.824Z,2.59
2022-09-12T13:18:24.081Z,2.41
2022-09-12T13:21:00.400Z,2.19
2022-09-12T13:23:29.780Z,2.09
2022-09-12T13:25:59.160Z,2.21
2022-09-12T13:28:28.422Z,2.78
2022-09-12T13:31:01.344Z,2.53
2022-09-12T13:33:36.981Z,2.26
2022-09-12T13:36:40.222Z,2.50
2022-09-12T13:39:19.141Z,2.41
2022-09-12T13:42:30.904Z,1.85
2022-09-12T13:45:05.361Z,1.71
2022-09-12T13:47:36.836Z,1.72
2022-09-12T13:50:13.092Z,1.72
2022-09-12T13:52:40.887Z,1.32
2022-09-12T13:55:23.540Z,1.56
2022-09-12T13:57:58.921Z,1.61
2022-09-12T14:00:26.182Z,1.45
2022-09-12T14:02:53.307Z,1.70
2022-09-12T14:05:25.801Z,1.49
2022-09-12T14:07:57.260Z,1.36
2022-09-12T14:10:30.621Z,1.32
2022-09-12T14:13:01.072Z,1.42
2022-09-12T14:15:31.424Z,1.33
2022-09-12T14:18:00.809Z,1.29
2022-09-12T14:20:31.469Z,1.51
2022-09-12T14:23:02.519Z,1.26
2022-09-12T14:25:37.982Z,1.26
2022-09-12T14:28:06.517Z,1.13
2022-09-12T14:30:36.520Z,1.25
2022-09-12T14:33:19.809Z,1.23
2022-09-12T14:35:52.141Z,1.02
2022-09-12T14:38:26.102Z,1.17
2022-09-12T14:41:00.625Z,1.16
2022-09-12T14:43:30.783Z,1.46
2022-09-12T14:46:02.170Z,1.25
2022-09-12T14:48:34.281Z,1.21
2022-09-12T14:51:05.462Z,1.25
2022-09-12T14:53:35.442Z,1.12
2022-09-12T14:56:12.021Z,1.25
2022-09-12T14:58:41.003Z,1.32
2022-09-12T15:01:32.039Z,1.21
2022-09-12T15:03:59.212Z,1.22
2022-09-12T15:06:31.360Z,1.25
2022-09-12T15:09:02.651Z,1.23
2022-09-12T15:11:30.063Z,1.24
2022-09-12T15:13:57.162Z,1.30
2022-09-12T15:16:24.294Z,1.35
2022-09-12T15:18:51.463Z,1.31
2022-09-12T15:21:21.283Z,1.46
2022-09-12T15:23:51.462Z,1.58
2022-09-12T15:26:20.780Z,1.77
2022-09-12T15:28:48.923Z,1.70
2022-09-12T15:31:28.255Z,1.95
2022-09-12T15:33:57.001Z,2.03
2022-09-12T15:36:25.677Z,1.71
2022-09-12T15:38:54.723Z,1.73
2022-09-12T15:41:25.140Z,1.41
2022-09-12T15:43:52.562Z,1.60
2022-09-12T15:46:20.498Z,1.40
2022-09-12T15:48:47.726Z,1.58
2022-09-12T15:51:17.486Z,1.64
2022-09-12T15:53:46.437Z,1.75
2022-09-12T15:56:18.019Z,2.01
2022-09-12T15:58:57.803Z,2.15
2022-09-12T16:01:26.251Z,2.05
2022-09-12T16:03:53.357Z,2.14
2022-09-12T16:06:20.460Z,2.05
2022-09-12T16:08:47.582Z,1.97
2022-09-12T16:11:21.401Z,2.05
2022-09-12T16:13:48.440Z,2.02
2022-09-12T16:16:15.633Z,2.05
2022-09-12T16:18:43.108Z,1.91
2022-09-12T16:21:14.987Z,2.02
2022-09-12T16:23:43.220Z,2.17
2022-09-12T16:26:10.379Z,2.01
2022-09-12T16:28:39.080Z,1.98
2022-09-12T16:31:09.305Z,1.80
2022-09-12T16:33:38.219Z,1.91
2022-09-12T16:36:07.583Z,1.91
2022-09-12T16:38:35.199Z,1.80
2022-09-12T16:41:02.879Z,1.81
2022-09-12T16:43:31.579Z,1.80
2022-09-12T16:46:05.114Z,2.06
2022-09-12T16:48:33.899Z,1.85
2022-09-12T16:51:03.859Z,1.97
2022-09-12T16:53:32.023Z,1.67
2022-09-12T16:55:59.202Z,1.74
2022-09-12T16:58:27.120Z,1.58
2022-09-12T17:01:00.362Z,1.69
2022-09-12T17:03:28.919Z,1.79
2022-09-12T17:05:59.439Z,1.76
2022-09-12T17:08:26.599Z,2.05
2022-09-12T17:10:53.711Z,2.29
2022-09-12T17:13:20.759Z,2.65
2022-09-12T17:15:47.885Z,2.21
2022-09-12T17:18:15.021Z,1.93
2022-09-12T17:20:43.521Z,2.19
2022-09-12T17:23:10.639Z,2.09
2022-09-12T17:25:37.740Z,2.00
2022-09-12T17:28:05.044Z,2.09
2022-09-12T17:30:34.720Z,2.25
2022-09-12T17:33:01.980Z,2.24
2022-09-12T17:35:29.259Z,1.94
2022-09-12T17:37:59.339Z,1.97
2022-09-12T17:40:48.826Z,2.03
2022-09-12T17:43:14.042Z,2.07
2022-09-12T17:45:41.840Z,2.03
2022-09-12T17:48:10.838Z,2.16
2022-09-12T17:50:39.529Z,2.46
2022-09-12T17:53:08.359Z,2.68
2022-09-12T17:55:35.799Z,2.73
2022-09-12T17:58:03.680Z,3.60
2022-09-12T18:00:31.780Z,10.83
2022-09-12T18:02:58.892Z,6.39
2022-09-12T18:05:25.960Z,3.55
2022-09-12T18:07:53.020Z,5.24
2022-09-12T18:10:21.579Z,10.32
2022-09-12T18:12:48.640Z,5.81
2022-09-12T18:15:15.919Z,4.83
2022-09-12T18:17:43.018Z,8.45
2022-09-12T18:20:10.199Z,9.49
2022-09-12T18:22:37.281Z,5.94
2022-09-12T18:25:04.939Z,9.26
2022-09-12T18:27:33.500Z,6.06
2022-09-12T18:30:19.965Z,4.53
2022-09-12T18:32:48.120Z,3.67
2022-09-12T18:35:15.400Z,3.62
2022-09-12T18:37:43.019Z,3.46
2022-09-12T18:40:11.269Z,3.47
2022-09-12T18:42:39.859Z,3.69
2022-09-12T18:45:08.418Z,4.78
2022-09-12T18:47:35.501Z,4.76
2022-09-12T18:50:02.619Z,4.24
2022-09-12T18:52:29.690Z,3.85
2022-09-12T18:54:56.899Z,4.16
2022-09-12T18:57:25.339Z,4.00
2022-09-12T18:59:53.802Z,4.03
2022-09-12T19:02:20.839Z,4.12
2022-09-12T19:04:47.900Z,4.07
2022-09-12T19:07:14.919Z,3.91
2022-09-12T19:09:41.964Z,4.07
2022-09-12T19:12:09.060Z,3.84
2022-09-12T19:14:36.180Z,4.03
2022-09-12T19:17:04.959Z,3.95
2022-09-12T19:19:32.019Z,4.22
2022-09-12T19:21:59.178Z,3.81
2022-09-12T19:24:26.339Z,4.24
2022-09-12T19:26:53.439Z,3.92
2022-09-12T19:29:20.760Z,3.82
2022-09-12T19:31:47.881Z,3.90
2022-09-12T19:34:16.520Z,3.93
2022-09-12T19:36:46.232Z,3.89
2022-09-12T19:39:16.570Z,4.02
2022-09-12T19:41:44.020Z,3.83
2022-09-12T19:44:11.140Z,4.12
2022-09-12T19:46:38.404Z,4.33
2022-09-12T19:49:05.812Z,3.57
2022-09-12T19:51:35.200Z,3.53
2022-09-12T19:54:02.519Z,3.55
2022-09-12T19:56:29.600Z,3.72
2022-09-12T19:58:57.038Z,3.94
2022-09-12T20:01:26.926Z,3.71
2022-09-12T20:03:54.298Z,3.96
2022-09-12T20:06:22.218Z,3.78
2022-09-12T20:08:50.819Z,4.80
2022-09-12T20:11:19.960Z,4.29
2022-09-12T20:13:47.924Z,3.79
2022-09-12T20:16:21.260Z,3.93
2022-09-12T20:18:54.323Z,3.64
2022-09-12T20:21:24.599Z,3.79
2022-09-12T20:23:53.103Z,3.73
2022-09-12T20:26:20.306Z,3.54
2022-09-12T20:28:47.875Z,3.15
2022-09-12T20:31:16.937Z,3.58
2022-09-12T20:33:47.544Z,3.33
2022-09-12T20:36:19.247Z,3.19
2022-09-12T20:38:48.737Z,2.91
2022-09-12T20:41:18.381Z,3.30
2022-09-12T20:43:45.472Z,3.49
2022-09-12T20:46:12.636Z,3.43
2022-09-12T20:48:39.986Z,3.46
2022-09-12T20:51:07.559Z,3.51
2022-09-12T20:53:35.576Z,3.65
2022-09-12T20:56:04.084Z,3.65
2022-09-12T20:58:33.705Z,3.32
2022-09-12T21:01:06.988Z,3.15
2022-09-12T21:03:37.345Z,2.99
2022-09-12T21:06:04.786Z,2.76
2022-09-12T21:08:32.165Z,3.00
2022-09-12T21:11:00.500Z,2.91
2022-09-12T21:13:27.828Z,2.86
2022-09-12T21:15:59.846Z,2.55
2022-09-12T21:18:27.345Z,2.59
2022-09-12T21:20:55.747Z,2.79
2022-09-12T21:23:24.844Z,3.01
2022-09-12T21:25:52.834Z,3.01
2022-09-12T21:28:20.289Z,3.01
2022-09-12T21:30:48.433Z,2.93
2022-09-12T21:33:18.625Z,2.91
2022-09-12T21:35:46.324Z,2.84
2022-09-12T21:38:13.485Z,2.87
2022-09-12T21:40:40.544Z,3.03
2022-09-12T21:43:12.334Z,2.88
2022-09-12T21:45:39.960Z,3.24
2022-09-12T21:48:07.363Z,3.13
2022-09-12T21:50:35.824Z,3.09
2022-09-12T21:53:03.047Z,2.73
2022-09-12T21:55:30.128Z,3.00
2022-09-12T21:57:57.139Z,2.83
2022-09-12T22:00:24.204Z,3.04
2022-09-12T22:02:51.370Z,2.96
2022-09-12T22:05:18.443Z,2.78
2022-09-12T22:07:46.984Z,2.75
2022-09-12T22:10:14.285Z,2.80
2022-09-12T22:12:45.944Z,2.68
2022-09-12T22:15:39.076Z,2.40
2022-09-12T22:18:01.105Z,2.49
2022-09-12T22:20:28.205Z,2.70
2022-09-12T22:22:56.726Z,1.32
2022-09-12T22:25:24.085Z,1.17
2022-09-12T22:27:51.186Z,1.46
2022-09-12T22:30:19.691Z,1.65
2022-09-12T22:32:47.084Z,1.71
2022-09-12T22:35:14.405Z,1.71
2022-09-12T22:37:41.646Z,1.88
2022-09-12T22:40:11.745Z,2.06
2022-09-12T22:42:38.889Z,2.43
2022-09-12T22:45:07.966Z,3.50
2022-09-12T22:47:35.087Z,5.05
2022-09-12T22:50:02.216Z,6.17
2022-09-12T22:52:29.265Z,7.26
2022-09-12T22:54:56.285Z,9.18
2022-09-12T22:57:24.824Z,10.60
2022-09-12T22:59:51.925Z,12.76
2022-09-12T23:02:18.905Z,15.17
2022-09-12T23:04:45.947Z,16.91
2022-09-12T23:07:13.166Z,5.77
2022-09-12T23:09:40.206Z,2.24
2022-09-12T23:12:07.527Z,2.43
2022-09-12T23:14:35.966Z,2.44
2022-09-12T23:17:03.657Z,53.64
2022-09-12T23:19:30.784Z,52.39
2022-09-12T23:21:57.873Z,35.54
2022-09-12T23:24:25.045Z,27.12
2022-09-12T23:26:52.188Z,21.52
2022-09-12T23:29:19.306Z,16.92
2022-09-12T23:31:47.895Z,12.62
2022-09-12T23:34:14.984Z,7.93
2022-09-12T23:36:42.065Z,6.55
2022-09-12T23:39:09.850Z,5.33
2022-09-12T23:41:36.926Z,4.21
2022-09-12T23:44:04.265Z,3.51
2022-09-12T23:46:31.464Z,3.44
2022-09-12T23:49:00.425Z,2.72
2022-09-12T23:51:27.524Z,2.55
2022-09-12T23:53:54.665Z,2.29
2022-09-12T23:56:21.765Z,2.31
2022-09-12T23:58:48.991Z,2.32
